• Join FlightAware (Why Join?)
  • Login
  • US Flag 
11:14AM EDT


 

Airport Tracker/Info


-or-


 

Live Flight TrackerFlight Track Log ✈ QLK529D ✈ 08-Aug-2012 ✈ YMRB / MOV - YBBN / BNE

Flight Track Log - Related Links

Times and Time Zones

All times are in EDT time to prevent confusion due to time zone crossing. See the QLK529D flight status page for this flight to view local times or setup timezone preferences in your user account.

Time Position Orientation Groundspeed Altitude Reporting Facility
EDT Latitude Longitude Course Direction KTS MPH feet Rate Location/Type
05:40AM -22.0786 148.0795 159° South 141 162 1,500  Level Aus ATC (RADAR)
05:41AM -22.1049 148.0901 124° Southeast 134 154 3,100 2,160 Climbing Aus ATC (RADAR)
05:42AM -22.1281 148.1267 135° Southeast 183 211 4,600 1,980 Climbing Aus ATC (RADAR)
05:42AM -22.1508 148.1516 142° Southeast 200 230 5,800 1,920 Climbing Aus ATC (RADAR)
05:44AM -22.2208 148.2097 141° Southeast 231 266 8,500 1,920 Climbing Aus ATC (RADAR)
05:44AM -22.2335 148.2206 142° Southeast 232 267 9,000 1,680 Climbing Aus ATC (RADAR)
05:44AM -22.2645 148.2467 141° Southeast 241 277 9,900 1,500 Climbing Aus ATC (RADAR)
05:45AM -22.3192 148.2952 142° Southeast 256 295 11,400 1,440 Climbing Aus ATC (RADAR)
05:46AM -22.3523 148.3229 142° Southeast 259 298 12,200 1,260 Climbing Aus ATC (RADAR)
05:47AM -22.4101 148.3712 142° Southeast 264 304 13,400 1,260 Climbing Aus ATC (RADAR)
05:48AM -22.4440 148.3999 142° Southeast 266 306 14,200 1,320 Climbing Aus ATC (RADAR)
05:49AM -22.5017 148.4493 141° Southeast 266 306 15,500 1,200 Climbing Aus ATC (RADAR)
05:49AM -22.5161 148.4619 142° Southeast 267 307 15,700 1,080 Climbing Aus ATC (RADAR)
05:50AM -22.5554 148.4956 142° Southeast 270 311 16,500 1,020 Climbing Aus ATC (RADAR)
05:50AM -22.6097 148.5419 142° Southeast 273 314 17,400 900 Climbing Aus ATC (RADAR)
05:51AM -22.6454 148.5721 142° Southeast 279 321 17,900 1,020 Climbing Aus ATC (RADAR)
05:52AM -22.7059 148.6238 142° Southeast 276 318 19,100 1,080 Climbing Aus ATC (RADAR)
05:53AM -22.7404 148.6531 141° Southeast 274 315 19,600 720 Climbing Aus ATC (RADAR)
05:54AM -22.8116 148.7148 136° Southeast 284 327 20,400 720 Climbing Aus ATC (RADAR)
05:54AM -22.8260 148.7297 134° Southeast 286 329 20,700 960 Climbing Aus ATC (RADAR)
05:55AM -22.8581 148.7659 135° Southeast 286 329 21,200 900 Climbing Aus ATC (RADAR)
05:55AM -22.9092 148.8223 136° Southeast 285 328 22,100 900 Climbing Aus ATC (RADAR)
05:56AM -22.9420 148.8570 135° Southeast 283 326 22,600 840 Climbing Aus ATC (RADAR)
05:57AM -22.9929 148.9115 135° Southeast 281 323 23,400 840 Climbing Aus ATC (RADAR)
05:58AM -23.0292 148.9510 135° Southeast 279 321 24,000 780 Climbing Aus ATC (RADAR)
05:59AM -23.0880 149.0155 135° Southeast 277 319 24,800 720 Climbing Aus ATC (RADAR)
05:59AM -23.1018 149.0303 136° Southeast 278 320 25,000 600 Climbing Aus ATC (RADAR)
06:00AM -23.1344 149.0648 135° Southeast 280 322 25,300 120 Climbing Aus ATC (RADAR)
06:00AM -23.1866 149.1227 135° Southeast 296 341 25,200 -120 Descending Aus ATC (RADAR)
06:01AM -23.2219 149.1608 135° Southeast 305 351 25,200  Level Aus ATC (RADAR)
06:02AM -23.2795 149.2233 135° Southeast 321 369 25,200  Level Aus ATC (RADAR)
06:03AM -23.3167 149.2639 135° Southeast 325 374 25,200  Level Aus ATC (RADAR)
06:04AM -23.3929 149.3460 134° Southeast 329 379 25,200  Level Aus ATC (RADAR)
06:04AM -23.4090 149.3641 135° Southeast 331 381 25,200  Level Aus ATC (RADAR)
06:05AM -23.4470 149.4053 135° Southeast 331 381 25,200  Level Aus ATC (RADAR)
06:05AM -23.5066 149.4706 134° Southeast 330 380 25,200  Level Aus ATC (RADAR)
06:06AM -23.5443 149.5125 135° Southeast 331 381 25,200  Level Aus ATC (RADAR)
06:07AM -23.6037 149.5780 135° Southeast 331 381 25,200  Level Aus ATC (RADAR)
06:08AM -23.6413 149.6194 135° Southeast 330 380 25,200  Level Aus ATC (RADAR)
06:09AM -23.7113 149.6965 135° Southeast 330 380 25,200  Level Aus ATC (RADAR)
06:09AM -23.7383 149.7263 134° Southeast 330 380 25,200  Level Aus ATC (RADAR)
06:10AM -23.7970 149.7921 135° Southeast 331 381 25,200  Level Aus ATC (RADAR)
06:11AM -23.8401 149.8395 135° Southeast 331 381 25,200  Level Aus ATC (RADAR)
06:12AM -23.8996 149.9051 135° Southeast 331 381 25,200  Level Aus ATC (RADAR)
06:12AM -23.9375 149.9472 135° Southeast 332 382 25,200  Level Aus ATC (RADAR)
06:13AM -23.9974 150.0138 134° Southeast 336 387 25,200  Level Aus ATC (RADAR)
06:14AM -24.0466 150.0687 134° Southeast 337 388 25,200  Level Aus ATC (RADAR)
06:15AM -24.0955 150.1236 135° Southeast 335 386 25,200  Level Aus ATC (RADAR)
06:15AM -24.1120 150.1417 134° Southeast 335 386 25,200  Level Aus ATC (RADAR)
06:15AM -24.1502 150.1844 135° Southeast 335 386 25,200  Level Aus ATC (RADAR)
06:16AM -24.2105 150.2517 134° Southeast 337 388 25,200  Level Aus ATC (RADAR)
06:17AM -24.2489 150.2948 134° Southeast 338 389 25,200  Level Aus ATC (RADAR)
06:18AM -24.3038 150.3565 135° Southeast 337 388 25,200  Level Aus ATC (RADAR)
06:18AM -24.3205 150.3751 134° Southeast 339 390 25,200  Level Aus ATC (RADAR)
06:19AM -24.3592 150.4185 135° Southeast 340 391 25,200  Level Aus ATC (RADAR)
06:19AM -24.4200 150.4865 135° Southeast 338 389 25,200  Level Aus ATC (RADAR)
06:20AM -24.4368 150.5051 134° Southeast 339 390 25,200  Level Aus ATC (RADAR)
06:20AM -24.4753 150.5489 137° Southeast 340 391 25,200  Level Aus ATC (RADAR)
06:21AM -24.5380 150.6142 139° Southeast 338 389 25,200  Level Aus ATC (RADAR)
06:22AM -24.5789 150.6536 138° Southeast 335 386 25,200  Level Aus ATC (RADAR)
06:23AM -24.6486 150.7219 138° Southeast 334 384 25,200  Level Aus ATC (RADAR)
06:23AM -24.6890 150.7623 138° Southeast 335 386 25,200  Level Aus ATC (RADAR)
06:24AM -24.7582 150.8305 136° Southeast 338 389 25,200  Level Aus ATC (RADAR)
06:25AM -24.7874 150.8610 137° Southeast 340 391 25,200  Level Aus ATC (RADAR)
06:26AM -24.8510 150.9253 138° Southeast 335 386 25,200  Level Aus ATC (RADAR)
06:26AM -24.8686 150.9426 138° Southeast 335 386 25,200  Level Aus ATC (RADAR)
06:26AM -24.9032 150.9771 138° Southeast 333 383 25,200  Level Aus ATC (RADAR)
06:27AM -24.9727 151.0459 137° Southeast 332 382 25,200  Level Aus ATC (RADAR)
06:28AM -25.0060 151.0800 138° Southeast 324 373 25,200  Level Aus ATC (RADAR)
06:29AM -25.0644 151.1385 139° Southeast 306 352 25,200  Level Aus ATC (RADAR)
06:29AM -25.0800 151.1536 137° Southeast 300 345 25,200  Level Aus ATC (RADAR)
06:30AM -25.1150 151.1896 139° Southeast 293 337 25,200  Level Aus ATC (RADAR)
06:31AM -25.1746 151.2477 137° Southeast 282 325 25,200  Level Aus ATC (RADAR)
06:31AM -25.2078 151.2815 137° Southeast 276 318 25,200  Level Aus ATC (RADAR)
06:32AM -25.2691 151.3450 139° Southeast 277 319 25,200  Level Aus ATC (RADAR)
06:33AM -25.3030 151.3776 137° Southeast 276 318 25,200  Level Aus ATC (RADAR)
06:34AM -25.3462 151.4217 137° Southeast 281 323 25,200  Level Aus ATC (RADAR)
06:34AM -25.3798 151.4562 138° Southeast 283 326 25,200  Level Aus ATC (RADAR)
06:35AM -25.4480 151.5248 137° Southeast 284 327 25,200  Level Aus ATC (RADAR)
06:36AM -25.4917 151.5706 138° Southeast 284 327 25,200  Level Aus ATC (RADAR)
06:37AM -25.5556 151.6346 138° Southeast 285 328 25,200  Level Aus ATC (RADAR)
06:38AM -25.5898 151.6691 140° Southeast 284 327 25,200  Level Aus ATC (RADAR)
06:39AM -25.6451 151.7200 142° Southeast 280 322 25,200  Level Aus ATC (RADAR)
06:39AM -25.6809 151.7513 140° Southeast 280 322 25,200  Level Aus ATC (RADAR)
06:40AM -25.7357 151.8029 139° Southeast 280 322 25,200  Level Aus ATC (RADAR)
06:41AM -25.7902 151.8547 140° Southeast 279 321 25,200  Level Aus ATC (RADAR)
06:42AM -25.8447 151.9059 139° Southeast 277 319 25,200  Level Aus ATC (RADAR)
06:43AM -25.8795 151.9390 139° Southeast 280 322 25,200  Level Aus ATC (RADAR)
06:44AM -25.9393 151.9958 140° Southeast 281 323 25,200  Level Aus ATC (RADAR)
06:44AM -25.9748 152.0291 140° Southeast 283 326 25,200  Level Aus ATC (RADAR)
06:45AM -26.0454 152.0962 140° Southeast 285 328 25,200  Level Aus ATC (RADAR)
06:46AM -26.0910 152.1392 139° Southeast 285 328 25,200 -600 Level Aus ATC (RADAR)
06:47AM -26.1528 152.1983 119° Southeast 292 336 24,200 -1,080 Descending Aus ATC (RADAR)
06:48AM -26.1786 152.2493 120° Southeast 312 359 23,600 -1,080 Descending Aus ATC (RADAR)
06:49AM -26.2211 152.3306 120° Southeast 294 338 22,600 -960 Descending Aus ATC (RADAR)
06:49AM -26.2453 152.3776 122° Southeast 296 341 22,100 -960 Descending Aus ATC (RADAR)
06:51AM -26.2944 152.4657 126° Southeast 276 318 21,000 -960 Descending Aus ATC (RADAR)
06:51AM -26.3054 152.4828 125° Southeast 270 311 20,800 -840 Descending Aus ATC (RADAR)
06:51AM -26.3308 152.5231 127° Southeast 269 310 20,300 -900 Descending Aus ATC (RADAR)
06:52AM -26.3726 152.5846 130° Southeast 267 307 19,500 -900 Descending Aus ATC (RADAR)
06:53AM -26.4008 152.6216 130° Southeast 264 304 19,000 -840 Descending Aus ATC (RADAR)
06:54AM -26.4492 152.6864 130° Southeast 265 305 18,200 -840 Descending Aus ATC (RADAR)
06:54AM -26.4769 152.7237 129° Southeast 262 302 17,700 -1,080 Descending Aus ATC (RADAR)
06:56AM -26.5272 152.7925 131° Southeast 258 297 16,400 -1,200 Descending Aus ATC (RADAR)
06:56AM -26.5393 152.8081 177° South 261 300 16,000 -1,320 Descending Aus ATC (RADAR)
06:56AM -26.5816 152.8104 193° South 224 258 15,300 -1,140 Descending Aus ATC (RADAR)
06:57AM -26.6397 152.7955 195° South 216 249 14,300 -1,080 Descending Aus ATC (RADAR)
06:58AM -26.6739 152.7849 195° South 219 252 13,700 -1,080 Descending Aus ATC (RADAR)
06:59AM -26.7438 152.7635 160° South 247 284 12,500 -1,200 Descending Aus ATC (RADAR)
07:00AM -26.7854 152.7802 149° Southeast 271 312 11,700 -1,440 Descending Aus ATC (RADAR)
07:01AM -26.8528 152.8250 152° Southeast 279 321 10,200 -1,500 Descending Aus ATC (RADAR)
07:01AM -26.8700 152.8354 151° Southeast 278 320 9,800 -1,320 Descending Aus ATC (RADAR)
07:01AM -26.9031 152.8558 151° Southeast 268 308 9,200 -1,260 Descending Aus ATC (RADAR)
07:02AM -26.9672 152.8949 152° Southeast 259 298 8,000 -1,320 Descending Aus ATC (RADAR)
07:03AM -27.0041 152.9168 152° Southeast 254 292 7,200 -1,320 Descending Aus ATC (RADAR)
07:04AM -27.0661 152.9547 151° Southeast 249 287 6,000 -1,080 Descending Aus ATC (RADAR)
07:05AM -27.1013 152.9762 151° Southeast 244 281 5,500 -900 Descending Aus ATC (RADAR)
07:06AM -27.1921 153.0318 160° South 241 277 4,000 -900 Descending Aus ATC (RADAR)
07:06AM -27.2023 153.0360 170° South 236 272 3,800 -1,380 Descending Aus ATC (RADAR)
07:07AM -27.2470 153.0450 170° South 213 245 3,000 -1,260 Descending Aus ATC (RADAR)
07:08AM -27.2955 153.0547 173° South 214 246 2,200 -720 Descending Aus ATC (RADAR)
07:08AM -27.3297 153.0594 176° South 210 242 2,000 -300 Descending Aus ATC (RADAR)
07:09AM -27.3893 153.0640 190° South 216 249 1,800 -360 Descending Aus ATC (RADAR)
07:10AM -27.4199 153.0580 128° Southeast 188 216 1,500 -600 Descending Aus ATC (RADAR)
07:11AM -27.4425 153.0907 50° Northeast 129 148 900 -600 Descending Aus ATC (RADAR)
07:11AM -27.4374 153.0976 29° Northeast 116 133 800 -480 Descending Aus ATC (RADAR)
07:12AM -27.4221 153.1073 13° North 111 128 500 -540 Descending Aus ATC (RADAR)
07:21AM -26.6647 153.3096 193° South  Level Estimated
07:22AM -27.3841 153.1176 193° South  Level FlightAware Approximate